Time;durP1;ratioP1;P1;durP2;ratioP2;P2;SDS_P1;SDS_P2;PMS_P1;PMS_P2;Temp;Humidity;BMP_temperature;BMP_pressure;BME280_temperature;BME280_humidity;BME280_pressure;Samples;Min_cycle;Max_cycle;Signal;HPM_P1;HPM_P2
2021/10/03 00:02:00;;;;;;;18.27;6.80;;;282.40;2278.40;;;;;;5109166;28;20043;-66
2021/10/03 00:04:28;;;;;;;11.13;7.38;;;282.40;2278.40;;;;;;5113127;28;20031;-66
2021/10/03 00:06:54;;;;;;;15.20;7.32;;;282.40;2278.40;;;;;;5111328;28;20035;-66
2021/10/03 00:09:21;;;;;;;11.95;7.05;;;282.40;2278.40;;;;;;5112572;28;20092;-67
2021/10/03 00:11:49;;;;;;;12.40;6.50;;;282.40;2278.40;;;;;;5111820;28;20084;-65
2021/10/03 00:14:16;;;;;;;9.80;6.57;;;282.40;2278.40;;;;;;5112789;28;20106;-66
2021/10/03 00:16:42;;;;;;;13.45;7.07;;;282.40;2278.40;;;;;;5112168;28;20032;-66
2021/10/03 00:19:09;;;;;;;14.70;6.95;;;282.40;2278.40;;;;;;5112684;28;20019;-65
2021/10/03 00:21:35;;;;;;;12.52;7.30;;;282.30;2278.40;;;;;;5112780;28;20042;-66
2021/10/03 00:24:01;;;;;;;16.50;6.95;;;282.30;2278.40;;;;;;5111216;28;20080;-67
2021/10/03 00:26:26;;;;;;;12.98;7.22;;;282.30;2278.40;;;;;;5112730;28;20046;-63
2021/10/03 00:28:52;;;;;;;12.45;6.85;;;282.20;2278.40;;;;;;5111772;28;20472;-66
2021/10/03 00:31:18;;;;;;;11.82;6.93;;;282.20;2278.40;;;;;;5112114;28;20043;-66
2021/10/03 00:33:44;;;;;;;14.18;7.57;;;282.20;2278.40;;;;;;5111084;28;20023;-66
2021/10/03 00:36:09;;;;;;;12.27;7.38;;;282.10;2278.40;;;;;;5111717;28;20354;-67
2021/10/03 00:38:35;;;;;;;11.35;6.97;;;282.10;2278.40;;;;;;5109798;28;20035;-68
2021/10/03 00:41:01;;;;;;;14.85;7.22;;;282.10;2278.40;;;;;;5114478;28;20031;-67
2021/10/03 00:43:27;;;;;;;12.98;7.38;;;282.10;2278.40;;;;;;5114032;28;20096;-68
2021/10/03 00:45:53;;;;;;;14.73;7.43;;;282.10;2278.40;;;;;;5113768;28;20024;-68
2021/10/03 00:48:19;;;;;;;12.48;7.55;;;282.10;2278.40;;;;;;5112405;28;20037;-65
2021/10/03 00:50:46;;;;;;;12.27;7.57;;;282.00;2278.40;;;;;;5112072;28;20044;-68
2021/10/03 00:53:13;;;;;;;14.20;7.65;;;282.00;2278.40;;;;;;5113546;28;20050;-67
2021/10/03 00:55:40;;;;;;;13.05;7.88;;;282.00;2278.40;;;;;;5113210;28;20024;-67
2021/10/03 00:58:08;;;;;;;15.25;7.25;;;281.90;2278.40;;;;;;5113547;28;20099;-65
2021/10/03 01:00:36;;;;;;;17.42;7.80;;;281.80;2278.40;;;;;;5113456;28;20020;-65
2021/10/03 01:03:04;;;;;;;14.10;7.93;;;281.80;2278.40;;;;;;5113601;28;20448;-66
2021/10/03 01:05:30;;;;;;;17.60;8.25;;;281.70;2278.40;;;;;;5109346;28;20020;-63
2021/10/03 01:07:57;;;;;;;13.35;7.15;;;281.70;2278.40;;;;;;5117340;27;20052;-67
2021/10/03 01:10:25;;;;;;;14.88;7.85;;;281.70;2278.40;;;;;;5115899;28;20409;-64
2021/10/03 01:12:56;;;;;;;12.02;7.47;;;281.70;2278.40;;;;;;5114756;28;20461;-67
2021/10/03 01:15:23;;;;;;;12.80;7.57;;;281.70;2278.40;;;;;;5117426;28;20027;-66
2021/10/03 01:17:48;;;;;;;15.88;8.15;;;281.70;2278.40;;;;;;5116660;28;20016;-67
2021/10/03 01:20:14;;;;;;;14.93;8.10;;;281.70;2278.40;;;;;;5115765;28;20020;-66
2021/10/03 01:22:40;;;;;;;14.45;8.10;;;281.70;2278.40;;;;;;5116682;28;20496;-66
2021/10/03 01:25:08;;;;;;;12.70;7.57;;;281.70;2278.40;;;;;;5116334;28;20026;-65
2021/10/03 01:27:36;;;;;;;14.68;7.97;;;281.80;2278.40;;;;;;5116404;28;20020;-67
2021/10/03 01:30:03;;;;;;;13.68;7.65;;;281.70;2278.40;;;;;;5116207;28;20035;-67
2021/10/03 01:32:29;;;;;;;13.63;7.97;;;281.70;2278.40;;;;;;5116079;28;20032;-66
2021/10/03 01:34:55;;;;;;;15.15;8.27;;;281.70;2278.40;;;;;;5116086;28;20026;-67
2021/10/03 01:37:23;;;;;;;13.02;8.32;;;281.70;2278.40;;;;;;5116431;28;20020;-66
2021/10/03 01:39:50;;;;;;;13.57;8.75;;;281.70;2278.40;;;;;;5116135;28;20034;-65
2021/10/03 01:42:16;;;;;;;17.02;9.15;;;281.60;2278.40;;;;;;5116129;28;20098;-66
2021/10/03 01:44:41;;;;;;;17.10;8.60;;;281.60;2278.40;;;;;;5114859;28;20054;-66
2021/10/03 01:47:07;;;;;;;12.75;8.50;;;281.60;2278.40;;;;;;5116139;28;20026;-65
2021/10/03 01:49:33;;;;;;;14.30;8.55;;;281.60;2278.40;;;;;;5115830;28;20020;-67
2021/10/03 01:51:59;;;;;;;15.25;8.65;;;281.60;2278.40;;;;;;5116028;28;20062;-67
2021/10/03 01:54:25;;;;;;;15.55;8.23;;;281.60;2278.40;;;;;;5115963;28;20031;-67
2021/10/03 01:56:51;;;;;;;14.60;8.20;;;281.60;2278.40;;;;;;5113137;28;20031;-66
2021/10/03 01:59:17;;;;;;;14.50;8.05;;;281.60;2278.40;;;;;;5115648;28;20012;-66
2021/10/03 02:01:45;;;;;;;13.95;8.20;;;256.90;2252.80;;;;;;5116322;28;20015;-65
2021/10/03 02:04:22;;;;;;;15.98;8.48;;;256.90;2252.80;;;;;;5113886;28;20031;-66
2021/10/03 02:06:50;;;;;;;15.02;8.55;;;256.90;2252.80;;;;;;5116199;28;20036;-63
2021/10/03 02:09:19;;;;;;;15.57;8.43;;;256.90;2252.80;;;;;;5116177;28;20023;-66
2021/10/03 02:11:49;;;;;;;13.10;8.23;;;256.90;2252.80;;;;;;5116354;28;20054;-66
2021/10/03 02:14:16;;;;;;;12.45;7.93;;;256.90;2252.80;;;;;;5113999;28;20098;-66
2021/10/03 02:16:42;;;;;;;14.93;8.98;;;256.80;2252.80;;;;;;5115810;28;20032;-67
2021/10/03 02:19:09;;;;;;;14.30;8.70;;;256.90;2252.80;;;;;;5115830;28;20529;-66
2021/10/03 02:21:35;;;;;;;16.50;8.38;;;256.80;2252.80;;;;;;5116660;27;20024;-65
2021/10/03 02:24:02;;;;;;;14.57;8.70;;;256.80;2252.80;;;;;;5116505;28;20027;-65
2021/10/03 02:26:28;;;;;;;19.02;8.55;;;256.70;2252.80;;;;;;5116806;28;20031;-66
2021/10/03 02:28:54;;;;;;;16.30;8.57;;;256.70;2252.80;;;;;;5116544;28;20084;-67
2021/10/03 02:31:20;;;;;;;15.73;8.48;;;256.70;2252.80;;;;;;5116510;28;20039;-63
2021/10/03 02:33:48;;;;;;;12.40;8.35;;;256.60;2252.80;;;;;;5116605;28;20384;-65
2021/10/03 02:36:16;;;;;;;17.65;8.43;;;256.40;2252.80;;;;;;5116239;28;20051;-64
2021/10/03 02:38:42;;;;;;;15.88;8.43;;;256.40;2252.80;;;;;;5114685;28;20074;-64
2021/10/03 02:41:09;;;;;;;17.05;8.35;;;256.30;2252.80;;;;;;5115903;28;20043;-66
2021/10/03 02:43:38;;;;;;;14.57;8.70;;;256.40;2252.80;;;;;;5115506;27;20015;-62
2021/10/03 02:46:04;;;;;;;14.73;8.82;;;256.40;2252.80;;;;;;5115654;28;20102;-62
2021/10/03 02:48:32;;;;;;;16.05;9.43;;;256.40;2252.80;;;;;;5114832;28;20434;-63
2021/10/03 02:50:58;;;;;;;14.98;8.57;;;256.40;2252.80;;;;;;5116488;28;20373;-66
2021/10/03 02:53:25;;;;;;;14.45;8.55;;;256.30;2252.80;;;;;;5116222;28;20023;-67
2021/10/03 02:55:51;;;;;;;16.25;9.07;;;256.30;2252.80;;;;;;5116019;28;20023;-63
2021/10/03 02:58:17;;;;;;;14.57;9.07;;;256.30;2252.80;;;;;;5116031;28;20125;-63
2021/10/03 03:00:47;;;;;;;18.10;8.73;;;256.20;2252.80;;;;;;5115934;28;20043;-66
2021/10/03 03:03:13;;;;;;;16.50;9.45;;;256.10;2252.80;;;;;;5116109;28;20023;-66
2021/10/03 03:05:39;;;;;;;16.00;9.82;;;256.10;2252.80;;;;;;5114438;28;20031;-66
2021/10/03 03:08:05;;;;;;;13.75;9.65;;;256.10;2252.80;;;;;;5115887;28;20082;-66
2021/10/03 03:10:32;;;;;;;15.32;9.70;;;256.10;2252.80;;;;;;5115947;28;20063;-66
2021/10/03 03:12:57;;;;;;;15.52;9.32;;;256.10;2252.80;;;;;;5115735;28;20015;-66
2021/10/03 03:15:23;;;;;;;15.20;9.27;;;256.10;2252.80;;;;;;5115682;27;20161;-63
2021/10/03 03:17:49;;;;;;;17.02;9.40;;;256.00;2252.80;;;;;;5115901;28;20416;-63
2021/10/03 03:20:15;;;;;;;16.00;9.00;;;256.00;2252.80;;;;;;5116026;28;20031;-65
2021/10/03 03:22:41;;;;;;;15.75;9.10;;;231.30;2252.80;;;;;;5115821;28;20023;-65
2021/10/03 03:25:09;;;;;;;15.68;9.55;;;231.30;2252.80;;;;;;5114141;28;20511;-65
2021/10/03 03:27:35;;;;;;;13.65;9.45;;;231.20;2252.80;;;;;;5114043;28;20023;-65
2021/10/03 03:30:02;;;;;;;16.58;9.50;;;231.20;2252.80;;;;;;5112130;28;20019;-65
2021/10/03 03:32:28;;;;;;;15.35;9.10;;;231.20;2252.80;;;;;;5112647;28;20035;-66
2021/10/03 03:34:53;;;;;;;16.33;9.35;;;231.20;2252.80;;;;;;5114816;28;20031;-63
2021/10/03 03:37:19;;;;;;;15.90;9.60;;;231.20;2252.80;;;;;;5115378;28;20015;-63
2021/10/03 03:39:45;;;;;;;17.35;8.85;;;231.20;2252.80;;;;;;5114831;28;20106;-67
2021/10/03 03:42:11;;;;;;;15.52;8.82;;;231.20;2252.80;;;;;;5115180;28;20125;-64
2021/10/03 03:44:36;;;;;;;16.30;9.02;;;231.20;2252.80;;;;;;5115004;28;20027;-64
2021/10/03 03:47:03;;;;;;;17.00;9.20;;;231.20;2252.80;;;;;;5115015;28;20027;-63
2021/10/03 03:49:29;;;;;;;14.15;9.60;;;231.10;2252.80;;;;;;5115255;28;20092;-65
2021/10/03 03:51:55;;;;;;;20.95;9.57;;;231.20;2252.80;;;;;;5115150;28;20036;-67
2021/10/03 03:54:21;;;;;;;16.67;9.57;;;231.10;2252.80;;;;;;5115060;28;20049;-64
2021/10/03 03:56:46;;;;;;;14.95;8.98;;;231.20;2252.80;;;;;;5114987;28;20081;-64
2021/10/03 03:59:12;;;;;;;14.95;9.00;;;231.20;2252.80;;;;;;5114719;28;20364;-63
2021/10/03 04:01:38;;;;;;;14.02;8.63;;;231.20;2252.80;;;;;;5114661;28;20024;-63
2021/10/03 04:04:04;;;;;;;16.15;9.13;;;231.20;2252.80;;;;;;5115068;28;20030;-63
2021/10/03 04:06:29;;;;;;;19.25;10.48;;;231.20;2252.80;;;;;;5114757;28;20389;-63
2021/10/03 04:08:55;;;;;;;16.63;9.70;;;231.20;2252.80;;;;;;5115058;28;20020;-64
2021/10/03 04:11:21;;;;;;;16.33;9.32;;;231.20;2252.80;;;;;;5114210;28;20031;-63
2021/10/03 04:13:47;;;;;;;16.83;9.60;;;231.20;2252.80;;;;;;5114614;28;20028;-67
2021/10/03 04:16:12;;;;;;;14.65;8.55;;;231.20;2252.80;;;;;;5114822;28;20030;-66
2021/10/03 04:18:38;;;;;;;15.52;9.13;;;231.10;2252.80;;;;;;5113634;28;20027;-66
2021/10/03 04:21:04;;;;;;;13.73;8.90;;;231.20;2252.80;;;;;;5114427;28;20049;-66
2021/10/03 04:23:30;;;;;;;15.50;9.10;;;231.20;2252.80;;;;;;5114587;28;20023;-64
2021/10/03 04:25:56;;;;;;;17.67;8.98;;;231.20;2252.80;;;;;;5114127;28;20024;-64
2021/10/03 04:28:24;;;;;;;14.68;8.52;;;231.20;2252.80;;;;;;5114620;28;20034;-64
2021/10/03 04:30:50;;;;;;;13.30;9.07;;;231.20;2252.80;;;;;;5114198;28;20027;-67
2021/10/03 04:33:16;;;;;;;16.15;8.77;;;231.10;2252.80;;;;;;5113930;28;20045;-67
2021/10/03 04:35:41;;;;;;;14.65;8.45;;;231.20;2252.80;;;;;;5114365;28;20030;-68
2021/10/03 04:38:07;;;;;;;14.45;8.40;;;231.20;2252.80;;;;;;5114378;28;20030;-67
2021/10/03 04:40:33;;;;;;;14.80;8.52;;;231.20;2252.80;;;;;;5113342;28;20030;-68
2021/10/03 04:42:59;;;;;;;15.35;8.88;;;231.20;2252.80;;;;;;5114162;27;20099;-67
2021/10/03 04:45:25;;;;;;;16.98;8.80;;;231.20;2252.80;;;;;;5114356;28;20030;-67
2021/10/03 04:47:50;;;;;;;15.48;8.60;;;231.20;2252.80;;;;;;5114244;28;20031;-67
2021/10/03 04:50:16;;;;;;;14.48;9.02;;;231.20;2252.80;;;;;;5113951;28;20050;-67
2021/10/03 04:52:43;;;;;;;16.70;9.20;;;231.20;2252.80;;;;;;5114003;28;20495;-67
2021/10/03 04:55:10;;;;;;;16.25;9.43;;;231.20;2252.80;;;;;;5114135;28;20031;-67
2021/10/03 04:57:36;;;;;;;13.40;9.02;;;231.20;2252.80;;;;;;5113916;28;20039;-67
2021/10/03 05:00:04;;;;;;;15.52;8.77;;;231.20;2252.80;;;;;;5113857;28;20081;-67
2021/10/03 05:02:30;;;;;;;16.30;9.18;;;231.30;2252.80;;;;;;5113911;28;20135;-66
2021/10/03 05:04:56;;;;;;;19.67;9.25;;;231.30;2252.80;;;;;;5114155;28;20484;-67
2021/10/03 05:07:22;;;;;;;15.85;9.75;;;231.30;2252.80;;;;;;5114007;28;20052;-67
2021/10/03 05:09:47;;;;;;;14.18;8.80;;;231.30;2252.80;;;;;;5113993;28;20027;-66
2021/10/03 05:12:13;;;;;;;15.02;9.82;;;256.00;2252.80;;;;;;5113945;28;20472;-67
2021/10/03 05:14:39;;;;;;;17.85;10.30;;;256.10;2252.80;;;;;;5112694;28;20027;-67
2021/10/03 05:17:04;;;;;;;19.67;11.57;;;256.10;2252.80;;;;;;5113883;28;20350;-67
2021/10/03 05:19:30;;;;;;;23.35;13.55;;;256.20;2252.80;;;;;;5114104;28;20030;-67
2021/10/03 05:21:56;;;;;;;17.48;12.32;;;256.20;2252.80;;;;;;5113747;28;20098;-67
2021/10/03 05:24:21;;;;;;;53.63;29.23;;;256.30;2252.80;;;;;;5113917;28;20030;-67
2021/10/03 05:26:47;;;;;;;36.72;21.17;;;256.40;2252.80;;;;;;5112568;28;20096;-67
2021/10/03 05:29:13;;;;;;;28.13;17.60;;;256.40;2252.80;;;;;;5113571;28;20469;-67
2021/10/03 05:31:39;;;;;;;14.95;10.65;;;256.50;2252.80;;;;;;5113824;28;20059;-66
2021/10/03 05:34:04;;;;;;;22.02;10.48;;;256.60;2252.80;;;;;;5113351;28;20020;-67
2021/10/03 05:36:30;;;;;;;16.70;9.40;;;256.70;2252.80;;;;;;5113662;28;20028;-67
2021/10/03 05:38:56;;;;;;;13.68;8.50;;;256.80;2252.80;;;;;;5113895;28;20030;-63
2021/10/03 05:41:23;;;;;;;13.20;8.82;;;281.60;2278.40;;;;;;5113869;28;20031;-64
2021/10/03 05:43:49;;;;;;;17.50;8.90;;;281.60;2278.40;;;;;;5112276;28;20016;-63
2021/10/03 05:46:15;;;;;;;13.13;8.05;;;281.70;2278.40;;;;;;5113776;28;20050;-64
2021/10/03 05:48:40;;;;;;;14.88;8.35;;;281.80;2278.40;;;;;;5113212;28;20059;-64
2021/10/03 05:51:06;;;;;;;13.10;8.13;;;281.90;2278.40;;;;;;5113632;28;20035;-63
2021/10/03 05:53:32;;;;;;;13.02;8.20;;;282.00;2278.40;;;;;;5117267;28;20020;-63
2021/10/03 05:55:58;;;;;;;15.57;8.30;;;282.20;2278.40;;;;;;5117415;28;20484;-64
2021/10/03 05:58:23;;;;;;;13.77;8.10;;;282.40;2278.40;;;;;;5117118;27;20460;-64
2021/10/03 06:00:49;;;;;;;12.38;7.90;;;307.20;2304.00;;;;;;5117107;28;20019;-64
2021/10/03 06:03:15;;;;;;;13.80;7.75;;;307.30;2304.00;;;;;;5117208;28;20076;-63
2021/10/03 06:05:40;;;;;;;18.25;7.40;;;307.50;2304.00;;;;;;5116910;28;20038;-65
2021/10/03 06:08:06;;;;;;;11.90;7.38;;;307.70;2304.00;;;;;;5116926;28;20044;-64
2021/10/03 06:10:32;;;;;;;11.25;6.82;;;307.80;2304.00;;;;;;5117191;28;20491;-63
2021/10/03 06:12:58;;;;;;;14.15;6.75;;;307.90;2304.00;;;;;;5117066;28;20019;-67
2021/10/03 06:15:24;;;;;;;10.98;6.80;;;332.90;2329.60;;;;;;5116659;28;20047;-68
2021/10/03 06:17:50;;;;;;;10.18;6.40;;;358.40;2329.60;;;;;;5116998;28;20047;-68
2021/10/03 06:20:16;;;;;;;11.13;6.53;;;384.00;2329.60;;;;;;5116930;28;20465;-67
2021/10/03 06:22:45;;;;;;;;;;;409.90;2329.60;;;;;;5117312;28;20051;-69
2021/10/03 06:25:15;;;;;;;11.23;5.95;;;435.60;2150.40;;;;;;5116866;28;19907;-67
2021/10/03 06:27:41;;;;;;;10.20;5.95;;;486.40;1971.20;;;;;;5116716;28;20026;-68
2021/10/03 06:30:08;;;;;;;9.63;5.60;;;512.20;1792.00;;;;;;5116359;28;20484;-68
2021/10/03 06:32:34;;;;;;;7.32;5.70;;;538.40;1638.40;;;;;;5116724;28;20034;-67
2021/10/03 06:34:59;;;;;;;8.55;5.25;;;588.90;1484.80;;;;;;5116387;28;20020;-70
2021/10/03 06:37:25;;;;;;;7.90;5.70;;;614.70;1331.20;;;;;;5115696;28;20383;-66
2021/10/03 06:39:51;;;;;;;8.80;5.82;;;614.90;1305.60;;;;;;5116431;28;20035;-68
2021/10/03 06:42:17;;;;;;;7.85;5.68;;;640.60;1228.80;;;;;;5116577;28;20085;-66
2021/10/03 06:44:42;;;;;;;10.52;5.80;;;666.10;1152.00;;;;;;5116340;28;20023;-63
2021/10/03 06:47:09;;;;;;;9.05;5.43;;;666.40;1152.00;;;;;;5116384;28;20034;-67
2021/10/03 06:49:36;;;;;;;8.63;5.50;;;691.80;1075.20;;;;;;5116157;28;20050;-66
2021/10/03 06:52:02;;;;;;;8.27;5.50;;;717.20;1049.60;;;;;;5114816;28;20039;-67
2021/10/03 06:54:28;;;;;;;6.63;5.18;;;717.40;998.40;;;;;;5115983;28;20019;-68
2021/10/03 06:56:54;;;;;;;7.70;4.85;;;692.00;998.40;;;;;;5116278;28;20047;-68
2021/10/03 06:59:20;;;;;;;8.65;5.50;;;666.50;1075.20;;;;;;5116050;28;20473;-67
2021/10/03 07:01:46;;;;;;;8.95;5.25;;;640.40;1126.40;;;;;;5115881;28;20477;-68
2021/10/03 07:04:12;;;;;;;12.43;5.22;;;614.80;1203.20;;;;;;5114838;28;20536;-66
2021/10/03 07:06:38;;;;;;;8.30;5.15;;;589.70;1254.40;;;;;;5115655;27;20110;-67
2021/10/03 07:09:04;;;;;;;7.72;5.15;;;589.50;1280.00;;;;;;5115736;28;20024;-67
2021/10/03 07:11:29;;;;;;;8.43;5.03;;;588.80;1305.60;;;;;;5115961;28;20495;-67
2021/10/03 07:13:55;;;;;;;10.15;5.30;;;563.60;1356.80;;;;;;5115337;28;20020;-67
2021/10/03 07:16:21;;;;;;;;;;;538.40;1382.40;;;;;;5115779;28;20034;-67
2021/10/03 07:18:46;;;;;;;8.38;5.00;;;537.80;1433.60;;;;;;5115985;28;20520;-67
2021/10/03 07:21:12;;;;;;;9.48;5.50;;;512.70;1433.60;;;;;;5115527;28;20103;-69
2021/10/03 07:23:38;;;;;;;9.38;5.28;;;487.30;1510.40;;;;;;5116089;28;20031;-68
2021/10/03 07:26:04;;;;;;;11.27;5.57;;;487.00;1536.00;;;;;;5115755;27;20031;-68
2021/10/03 07:28:30;;;;;;;8.68;5.70;;;486.90;1561.60;;;;;;5115266;28;20373;-68
2021/10/03 07:30:55;;;;;;;8.50;5.40;;;487.00;1561.60;;;;;;5115331;28;20123;-67
2021/10/03 07:33:22;;;;;;;11.15;5.40;;;486.90;1561.60;;;;;;5113773;28;20165;-68
2021/10/03 07:35:48;;;;;;;12.25;5.65;;;486.60;1587.20;;;;;;5115554;28;20024;-69
2021/10/03 07:38:14;;;;;;;10.55;5.93;;;486.90;1536.00;;;;;;5115143;28;20483;-69
2021/10/03 07:40:40;;;;;;;9.88;6.25;;;512.20;1484.80;;;;;;5115450;28;20047;-68
2021/10/03 07:43:06;;;;;;;9.68;5.43;;;538.50;1382.40;;;;;;5115388;28;20027;-68
2021/10/03 07:45:32;;;;;;;7.25;5.10;;;589.10;1280.00;;;;;;5114920;28;20076;-70
2021/10/03 07:47:58;;;;;;;8.95;5.30;;;640.00;1177.60;;;;;;5114740;28;20106;-67
2021/10/03 07:50:25;;;;;;;7.30;4.22;;;666.50;1100.80;;;;;;5115049;28;20602;-67
2021/10/03 07:52:50;;;;;;;7.03;4.43;;;716.90;998.40;;;;;;5114829;28;20098;-66
2021/10/03 07:55:16;;;;;;;8.02;4.03;;;742.70;947.20;;;;;;5115066;28;20105;-66
2021/10/03 07:57:42;;;;;;;6.78;4.30;;;768.10;896.00;;;;;;5115003;28;20042;-66
2021/10/03 08:00:09;;;;;;;7.38;4.45;;;793.60;844.80;;;;;;5114900;28;20517;-66
2021/10/03 08:02:36;;;;;;;6.88;4.20;;;819.50;819.20;;;;;;5114696;28;20099;-67
2021/10/03 08:05:02;;;;;;;6.75;3.88;;;845.10;768.00;;;;;;5114686;28;20088;-66
2021/10/03 08:07:27;;;;;;;7.20;4.20;;;870.40;742.40;;;;;;5114476;28;20044;-67
2021/10/03 08:09:55;;;;;;;6.88;3.90;;;870.80;716.80;;;;;;5114963;28;20084;-66
2021/10/03 08:12:21;;;;;;;7.80;4.20;;;871.00;691.20;;;;;;5114735;28;20092;-67
2021/10/03 08:14:47;;;;;;;8.38;5.07;;;896.20;665.60;;;;;;5114336;28;20026;-67
2021/10/03 08:17:12;;;;;;;5.50;4.50;;;896.20;665.60;;;;;;5114621;28;20107;-67
2021/10/03 08:19:38;;;;;;;4.95;3.80;;;921.90;665.60;;;;;;5114349;28;20032;-67
2021/10/03 08:22:04;;;;;;;7.13;3.90;;;922.30;640.00;;;;;;5114239;28;20035;-67
2021/10/03 08:24:31;;;;;;;6.05;3.80;;;947.60;614.40;;;;;;5114608;28;20103;-67
2021/10/03 08:26:57;;;;;;;8.93;4.88;;;948.00;588.80;;;;;;5114528;28;20038;-67
2021/10/03 08:29:23;;;;;;;5.03;4.05;;;998.50;588.80;;;;;;5114440;28;20019;-66
2021/10/03 08:31:49;;;;;;;8.65;5.32;;;973.60;563.20;;;;;;5114001;28;20362;-67
2021/10/03 08:34:16;;;;;;;6.95;3.90;;;973.30;563.20;;;;;;5114165;28;20027;-65
2021/10/03 08:36:42;;;;;;;4.75;3.80;;;998.60;563.20;;;;;;5114246;28;20042;-66
2021/10/03 08:39:08;;;;;;;5.78;3.85;;;973.70;537.60;;;;;;5114311;28;20088;-67
2021/10/03 08:41:34;;;;;;;7.13;3.90;;;998.40;563.20;;;;;;5114100;28;20055;-67
2021/10/03 08:44:00;;;;;;;6.38;3.90;;;999.10;537.60;;;;;;5114049;28;20165;-67
2021/10/03 08:46:27;;;;;;;5.93;3.78;;;999.30;537.60;;;;;;5113087;28;20027;-68
2021/10/03 08:48:55;;;;;;;4.93;3.97;;;1024.10;512.00;;;;;;5114103;28;20098;-68
2021/10/03 08:51:22;;;;;;;5.10;3.80;;;1024.50;512.00;;;;;;5113838;28;20035;-68
2021/10/03 08:53:48;;;;;;;6.63;4.00;;;1024.60;512.00;;;;;;5109528;28;20035;-68
2021/10/03 08:56:14;;;;;;;7.65;4.22;;;1024.30;512.00;;;;;;5108770;28;20430;-67
2021/10/03 08:58:40;;;;;;;6.25;3.95;;;999.20;537.60;;;;;;5111502;28;20381;-67
2021/10/03 09:01:07;;;;;;;5.97;4.13;;;1024.60;486.40;;;;;;5111284;28;20026;-66
2021/10/03 09:03:33;;;;;;;5.38;3.80;;;1024.60;486.40;;;;;;5111378;28;20365;-67
2021/10/03 09:05:59;;;;;;;6.97;4.15;;;1024.90;486.40;;;;;;5108547;28;20081;-67
2021/10/03 09:08:30;;;;;;;7.70;4.78;;;1075.20;486.40;;;;;;5108932;28;20040;-67
2021/10/03 09:11:00;;;;;;;6.05;4.00;;;1050.40;486.40;;;;;;5110719;28;20197;-67
2021/10/03 09:13:31;;;;;;;4.75;4.03;;;1075.70;460.80;;;;;;5111910;28;20043;-67
2021/10/03 09:16:36;;;;;;;6.30;4.35;;;1050.00;486.40;;;;;;5111055;28;20103;-66
2021/10/03 09:19:13;;;;;;;5.63;3.90;;;1075.20;460.80;;;;;;5047569;28;20502;-66
2021/10/03 09:21:40;;;;;;;4.85;3.80;;;1049.60;512.00;;;;;;5049221;28;20025;-65
2021/10/03 09:24:11;;;;;;;6.63;4.15;;;1050.30;486.40;;;;;;5047725;28;20120;-66
2021/10/03 09:26:50;;;;;;;6.43;3.85;;;1100.80;486.40;;;;;;5048198;28;20029;-66
2021/10/03 09:29:32;;;;;;;5.82;3.67;;;1101.70;435.20;;;;;;5043483;28;20029;-66
2021/10/03 09:32:16;;;;;;;5.90;4.00;;;1101.00;460.80;;;;;;5035325;28;20409;-66
2021/10/03 09:34:49;;;;;;;8.73;3.80;;;1101.50;435.20;;;;;;5052405;28;20144;-66
2021/10/03 09:37:24;;;;;;;6.93;3.90;;;1126.90;409.60;;;;;;5052216;28;20438;-66
2021/10/03 09:40:18;;;;;;;5.43;3.90;;;1127.30;409.60;;;;;;5037836;28;20037;-67
2021/10/03 09:43:02;;;;;;;5.68;4.00;;;1152.00;409.60;;;;;;5032922;28;20037;-64
2021/10/03 09:45:28;;;;;;;7.40;3.90;;;1152.60;409.60;;;;;;5028466;28;20065;-66
2021/10/03 09:48:03;;;;;;;6.10;3.85;;;1152.10;409.60;;;;;;5032666;28;20033;-65
2021/10/03 09:50:31;;;;;;;6.53;4.03;;;1152.30;409.60;;;;;;5032628;28;20046;-64
2021/10/03 09:52:57;;;;;;;9.98;7.07;;;1152.10;409.60;;;;;;5014667;28;20502;-65
2021/10/03 09:55:25;;;;;;;6.82;4.75;;;1126.80;435.20;;;;;;5053966;28;20032;-66
2021/10/03 09:57:54;;;;;;;5.38;3.85;;;1127.00;409.60;;;;;;5095288;28;20070;-66
2021/10/03 10:00:22;;;;;;;5.55;3.70;;;1127.00;409.60;;;;;;5094661;28;21123;-65
2021/10/03 10:02:49;;;;;;;9.77;4.25;;;1152.00;409.60;;;;;;5094923;28;20032;-65
2021/10/03 10:05:17;;;;;;;5.45;4.07;;;1152.90;409.60;;;;;;5094171;28;20063;-63
2021/10/03 10:07:44;;;;;;;6.75;3.97;;;1178.10;409.60;;;;;;5094091;28;20052;-66
2021/10/03 10:10:10;;;;;;;6.68;4.30;;;1152.50;409.60;;;;;;5110971;28;20389;-65
2021/10/03 10:12:44;;;;;;;6.82;4.20;;;1152.90;409.60;;;;;;5114844;28;20080;-64
2021/10/03 10:15:12;;;;;;;5.43;4.10;;;1178.00;409.60;;;;;;5114115;27;20032;-65
2021/10/03 10:17:40;;;;;;;6.05;4.07;;;1203.20;435.20;;;;;;5114266;28;20065;-64
2021/10/03 10:20:18;;;;;;;5.43;4.10;;;1203.30;435.20;;;;;;5112026;28;20023;-64
2021/10/03 10:23:09;;;;;;;6.95;4.57;;;1204.00;435.20;;;;;;5112271;28;20030;-66
2021/10/03 10:25:52;;;;;;;5.03;4.15;;;1152.50;409.60;;;;;;5110536;28;20032;-64
2021/10/03 10:28:27;;;;;;;7.97;3.63;;;1126.80;460.80;;;;;;5095541;28;20473;-65
2021/10/03 10:31:11;;;;;;;4.65;4.05;;;1152.60;409.60;;;;;;5096157;28;20040;-64
2021/10/03 10:33:56;;;;;;;5.93;4.28;;;1177.90;409.60;;;;;;5096541;28;20086;-64
2021/10/03 10:36:28;;;;;;;6.65;4.47;;;1177.90;409.60;;;;;;5096213;28;20107;-64
2021/10/03 10:39:09;;;;;;;4.88;4.10;;;1152.00;409.60;;;;;;5094641;28;20538;-64
2021/10/03 10:41:46;;;;;;;6.38;4.65;;;1152.50;409.60;;;;;;5096094;28;20069;-65
2021/10/03 10:44:33;;;;;;;4.68;4.10;;;1178.00;409.60;;;;;;5095991;28;20489;-64
2021/10/03 10:47:01;;;;;;;6.55;4.55;;;1152.90;409.60;;;;;;5109667;28;20023;-65
2021/10/03 10:49:26;;;;;;;4.93;3.85;;;1152.10;435.20;;;;;;5114901;28;20028;-65
2021/10/03 10:52:17;;;;;;;4.78;4.20;;;1152.90;409.60;;;;;;5115558;28;20036;-64
2021/10/03 10:55:01;;;;;;;6.15;4.40;;;1178.50;409.60;;;;;;5112756;28;20080;-64
2021/10/03 10:57:32;;;;;;;5.18;4.00;;;1152.30;409.60;;;;;;5113188;28;20020;-64
2021/10/03 11:00:19;;;;;;;7.47;4.25;;;1152.30;409.60;;;;;;5115481;28;20031;-66
2021/10/03 11:03:02;;;;;;;6.22;4.05;;;1152.50;409.60;;;;;;5113193;28;20020;-63
2021/10/03 11:08:28;;;;;;;5.22;4.63;;;1152.80;409.60;;;;;;5052486;28;20044;-66
2021/10/03 11:10:56;;;;;;;6.97;4.55;;;1152.10;409.60;;;;;;5052707;28;20041;-65
2021/10/03 11:13:46;;;;;;;8.10;5.10;;;1127.30;409.60;;;;;;5052192;28;20037;-64
2021/10/03 11:16:26;;;;;;;6.18;5.53;;;1126.50;435.20;;;;;;5052804;28;20037;-65
2021/10/03 11:18:56;;;;;;;10.02;6.90;;;1126.90;409.60;;;;;;5052660;28;20029;-66
2021/10/03 11:21:26;;;;;;;11.27;6.55;;;1152.10;409.60;;;;;;5035724;28;20577;-65
2021/10/03 11:23:53;;;;;;;7.93;6.32;;;1126.80;435.20;;;;;;5035789;28;20528;-64
2021/10/03 11:26:19;;;;;;;7.90;7.10;;;1152.00;409.60;;;;;;5052770;28;20124;-64
2021/10/03 11:28:54;;;;;;;6.55;5.53;;;1126.70;435.20;;;;;;5052543;28;20032;-65
2021/10/03 11:31:44;;;;;;;11.63;7.40;;;1127.00;409.60;;;;;;5052260;28;20387;-64
2021/10/03 11:34:23;;;;;;;5.75;4.60;;;1152.60;409.60;;;;;;5052991;28;20495;-64
2021/10/03 11:36:49;;;;;;;6.97;6.10;;;1127.30;409.60;;;;;;5052479;28;20044;-64
2021/10/03 11:39:15;;;;;;;11.43;6.72;;;1152.10;409.60;;;;;;5052183;28;20116;-64
2021/10/03 11:41:51;;;;;;;9.73;7.40;;;1152.10;409.60;;;;;;5050604;28;20029;-64
2021/10/03 11:44:23;;;;;;;6.68;4.30;;;1152.30;409.60;;;;;;5062471;28;20035;-67
2021/10/03 11:46:57;;;;;;;14.00;11.10;;;1127.30;409.60;;;;;;5113307;28;20119;-64
2021/10/03 11:49:31;;;;;;;10.70;9.07;;;1177.70;409.60;;;;;;5111117;28;20240;-64
2021/10/03 11:51:57;;;;;;;8.27;6.82;;;1127.20;409.60;;;;;;5107905;28;20039;-71
2021/10/03 11:54:29;;;;;;;7.65;5.30;;;1152.90;409.60;;;;;;5112692;27;20046;-67
2021/10/03 11:56:55;;;;;;;6.95;5.82;;;1127.30;409.60;;;;;;5112467;28;20026;-67
2021/10/03 11:59:20;;;;;;;7.78;5.10;;;1152.00;409.60;;;;;;5112765;28;20035;-67
2021/10/03 12:01:46;;;;;;;6.65;4.50;;;1126.70;409.60;;;;;;5112985;28;20500;-71
2021/10/03 12:04:25;;;;;;;10.68;8.73;;;1101.70;384.00;;;;;;5110448;28;20439;-71
2021/10/03 12:06:51;;;;;;;18.45;13.10;;;1101.60;409.60;;;;;;5112804;28;20055;-71
2021/10/03 12:09:17;;;;;;;12.00;8.25;;;1126.60;409.60;;;;;;5111662;28;20062;-70
2021/10/03 12:11:50;;;;;;;5.88;5.03;;;1126.80;409.60;;;;;;5112562;28;20035;-75
2021/10/03 12:14:16;;;;;;;7.43;5.10;;;1126.40;435.20;;;;;;5110119;28;20035;-70
2021/10/03 12:16:52;;;;;;;7.43;6.63;;;1126.80;409.60;;;;;;5112661;28;20093;-67
2021/10/03 12:19:18;;;;;;;7.63;5.30;;;1126.80;409.60;;;;;;5112245;28;20043;-70
2021/10/03 12:21:44;;;;;;;7.45;5.90;;;1152.30;409.60;;;;;;5111725;28;20035;-71